Time;durP1;ratioP1;P1;durP2;ratioP2;P2;SDS_P1;SDS_P2;PMS_P1;PMS_P2;Temp;Humidity;BMP_temperature;BMP_pressure;BME280_temperature;BME280_humidity;BME280_pressure;Samples;Min_cycle;Max_cycle;Signal;HPM_P1;HPM_P2
2022/10/10 00:02:58;;;;;;;26.17;15.77;;;;;;;;;;10323503;28;20049;-76
2022/10/10 00:07:58;;;;;;;22.52;15.27;;;;;;;;;;10323350;28;20026;-76
2022/10/10 00:12:59;;;;;;;23.05;13.88;;;;;;;;;;10325256;28;20523;-78
2022/10/10 00:17:59;;;;;;;21.23;14.57;;;;;;;;;;10323723;28;20027;-79
2022/10/10 00:23:00;;;;;;;27.52;15.55;;;;;;;;;;10324755;28;20026;-78
2022/10/10 00:28:01;;;;;;;24.33;15.18;;;;;;;;;;10325121;28;20055;-78
2022/10/10 00:33:01;;;;;;;24.92;14.23;;;;;;;;;;10324013;28;20022;-75
2022/10/10 00:38:02;;;;;;;25.00;14.50;;;;;;;;;;10325370;28;20109;-79
2022/10/10 00:43:02;;;;;;;24.25;16.02;;;;;;;;;;10324669;28;20030;-82
2022/10/10 00:48:04;;;;;;;24.52;15.65;;;;;;;;;;10324096;28;20045;-78
2022/10/10 00:53:06;;;;;;;23.23;16.13;;;;;;;;;;10322250;28;20144;-79
2022/10/10 00:58:07;;;;;;;22.13;15.70;;;;;;;;;;10323829;28;20030;-76
2022/10/10 01:03:07;;;;;;;23.02;15.40;;;;;;;;;;10323639;28;20409;-76
2022/10/10 01:08:08;;;;;;;23.85;15.05;;;;;;;;;;10324883;28;20539;-81
2022/10/10 01:13:21;;;;;;;23.98;15.63;;;;;;;;;;10323022;28;20451;-76
2022/10/10 01:18:21;;;;;;;26.48;16.40;;;;;;;;;;10323302;28;20030;-78
2022/10/10 01:23:30;;;;;;;27.40;16.63;;;;;;;;;;10323912;28;20037;-78
2022/10/10 01:28:43;;;;;;;26.70;17.30;;;;;;;;;;10322092;28;20149;-76
2022/10/10 01:33:49;;;;;;;21.77;14.20;;;;;;;;;;10322577;28;20104;-77
2022/10/10 01:38:52;;;;;;;31.25;16.33;;;;;;;;;;10324128;28;20480;-77
2022/10/10 01:43:53;;;;;;;23.00;14.75;;;;;;;;;;10321610;28;20022;-75
2022/10/10 01:48:54;;;;;;;25.92;15.88;;;;;;;;;;10323016;28;20034;-74
2022/10/10 01:54:13;;;;;;;22.00;14.00;;;;;;;;;;10319684;28;20034;-79
2022/10/10 01:59:14;;;;;;;23.25;15.07;;;;;;;;;;10320335;28;20034;-74
2022/10/10 02:04:21;;;;;;;23.40;15.18;;;;;;;;;;10320135;28;20034;-75
2022/10/10 02:09:25;;;;;;;22.40;14.15;;;;;;;;;;10322131;28;20058;-75
2022/10/10 02:14:43;;;;;;;24.65;14.52;;;;;;;;;;10320704;28;20428;-74
2022/10/10 02:19:54;;;;;;;23.67;13.73;;;;;;;;;;10318972;28;20041;-75
2022/10/10 02:24:54;;;;;;;20.20;14.32;;;;;;;;;;10320696;28;20069;-76
2022/10/10 02:29:56;;;;;;;19.73;14.07;;;;;;;;;;10320699;28;20051;-74
2022/10/10 02:34:59;;;;;;;24.38;13.27;;;;;;;;;;10321670;28;20551;-74
2022/10/10 02:40:00;;;;;;;18.90;11.38;;;;;;;;;;10320826;28;20018;-76
2022/10/10 02:45:01;;;;;;;17.40;11.65;;;;;;;;;;10321821;28;20121;-75
2022/10/10 02:50:01;;;;;;;17.13;12.50;;;;;;;;;;10317794;28;20022;-77
2022/10/10 02:55:02;;;;;;;18.07;11.93;;;;;;;;;;10320356;28;20022;-79
2022/10/10 03:00:03;;;;;;;20.17;12.90;;;;;;;;;;10321596;28;20040;-75
2022/10/10 03:05:03;;;;;;;18.73;12.75;;;;;;;;;;10327958;28;20499;-75
2022/10/10 03:10:06;;;;;;;20.67;11.90;;;;;;;;;;10328849;28;20033;-77
2022/10/10 03:15:06;;;;;;;24.60;13.48;;;;;;;;;;10327914;28;20492;-73
2022/10/10 03:20:07;;;;;;;24.45;13.93;;;;;;;;;;10326850;28;20018;-76
2022/10/10 03:25:07;;;;;;;23.65;13.25;;;;;;;;;;10326855;28;20117;-79
2022/10/10 03:30:08;;;;;;;20.65;13.13;;;;;;;;;;10326913;28;20019;-78
2022/10/10 03:35:08;;;;;;;26.15;12.73;;;;;;;;;;10326762;28;20027;-75
2022/10/10 03:40:09;;;;;;;20.83;12.60;;;;;;;;;;10326386;28;20053;-75
2022/10/10 03:45:09;;;;;;;19.42;13.55;;;;;;;;;;10324326;28;20028;-74
2022/10/10 03:50:09;;;;;;;20.67;13.85;;;;;;;;;;10323967;28;20025;-75
2022/10/10 03:55:10;;;;;;;24.42;15.23;;;;;;;;;;10325688;28;20022;-76
2022/10/10 04:00:11;;;;;;;22.70;14.43;;;;;;;;;;10325416;28;20377;-74
2022/10/10 04:05:11;;;;;;;25.50;14.68;;;;;;;;;;10325876;28;20018;-74
2022/10/10 04:10:11;;;;;;;24.13;13.80;;;;;;;;;;10308264;28;20015;-83
2022/10/10 04:15:12;;;;;;;23.03;14.60;;;;;;;;;;10316451;28;20085;-76
2022/10/10 04:20:12;;;;;;;28.77;13.75;;;;;;;;;;10325971;28;20019;-76
2022/10/10 04:25:12;;;;;;;21.98;14.35;;;;;;;;;;10323604;28;20122;-75
2022/10/10 04:30:12;;;;;;;26.00;15.13;;;;;;;;;;10319407;28;20049;-74
2022/10/10 04:35:13;;;;;;;22.80;14.03;;;;;;;;;;10335935;28;20105;-76
2022/10/10 04:40:13;;;;;;;21.90;14.10;;;;;;;;;;10320273;28;20105;-76
2022/10/10 04:45:13;;;;;;;23.65;13.50;;;;;;;;;;10322174;28;20045;-76
2022/10/10 04:50:13;;;;;;;18.98;11.20;;;;;;;;;;10322737;28;20125;-75
2022/10/10 04:55:14;;;;;;;21.98;13.05;;;;;;;;;;10322598;28;20069;-75
2022/10/10 05:00:14;;;;;;;33.92;15.70;;;;;;;;;;10322788;28;20136;-76
2022/10/10 05:05:14;;;;;;;31.48;15.15;;;;;;;;;;10320477;28;20033;-82
2022/10/10 05:10:15;;;;;;;41.23;14.53;;;;;;;;;;10316725;28;20500;-77
2022/10/10 05:15:16;;;;;;;25.60;13.70;;;;;;;;;;10315184;28;20488;-76
2022/10/10 05:20:16;;;;;;;22.30;14.07;;;;;;;;;;10321918;28;20017;-78
2022/10/10 05:25:16;;;;;;;17.80;11.43;;;;;;;;;;10321221;28;20029;-76
2022/10/10 05:30:17;;;;;;;20.17;12.50;;;;;;;;;;10309876;23;20054;-82
2022/10/10 05:35:17;;;;;;;21.33;11.63;;;;;;;;;;10241342;28;20030;-77
2022/10/10 05:40:17;;;;;;;23.50;12.13;;;;;;;;;;10240933;28;20019;-78
2022/10/10 05:45:18;;;;;;;20.52;11.70;;;;;;;;;;10241485;28;20021;-84
2022/10/10 05:50:38;;;;;;;21.88;13.05;;;;;;;;;;10240275;28;20070;-77
2022/10/10 05:55:39;;;;;;;19.90;12.90;;;;;;;;;;10240701;28;20031;-75
2022/10/10 06:00:40;;;;;;;25.00;14.85;;;;;;;;;;10238741;28;20027;-80
2022/10/10 06:05:40;;;;;;;32.55;15.98;;;;;;;;;;10239415;28;20437;-82
2022/10/10 06:10:42;;;;;;;28.13;16.70;;;;;;;;;;10240331;28;20042;-74
2022/10/10 06:15:42;;;;;;;28.90;15.73;;;;;;;;;;10240963;28;20015;-75
2022/10/10 06:20:42;;;;;;;24.38;14.80;;;;;;;;;;10240361;28;20019;-76
2022/10/10 06:25:43;;;;;;;23.17;13.63;;;;;;;;;;10240916;28;20490;-77
2022/10/10 06:30:43;;;;;;;25.37;13.73;;;;;;;;;;10238519;28;20044;-75
2022/10/10 06:35:45;;;;;;;26.83;11.75;;;;;;;;;;10243833;28;20015;-74
2022/10/10 06:40:45;;;;;;;29.55;14.90;;;;;;;;;;10250081;28;20537;-75
2022/10/10 06:45:48;;;;;;;31.48;16.08;;;;;;;;;;10255197;28;20019;-79
2022/10/10 06:50:59;;;;;;;23.73;14.43;;;;;;;;;;10251848;28;20023;-79
2022/10/10 06:56:00;;;;;;;31.63;17.10;;;;;;;;;;10253575;28;20077;-80
2022/10/10 07:01:01;;;;;;;26.13;15.47;;;;;;;;;;10252556;28;20469;-75
2022/10/10 07:06:02;;;;;;;41.70;16.02;;;;;;;;;;10251316;28;20400;-76
2022/10/10 07:11:03;;;;;;;33.35;16.88;;;;;;;;;;10253167;28;20134;-75
2022/10/10 07:16:04;;;;;;;28.48;17.08;;;;;;;;;;10257618;28;20023;-78
2022/10/10 07:21:04;;;;;;;36.65;18.10;;;;;;;;;;10254155;28;20023;-75
2022/10/10 07:26:06;;;;;;;25.00;16.20;;;;;;;;;;10253685;28;20027;-75
2022/10/10 07:31:07;;;;;;;32.97;17.35;;;;;;;;;;10252601;28;20190;-83
2022/10/10 07:36:08;;;;;;;32.28;15.07;;;;;;;;;;10252604;28;20545;-83
2022/10/10 07:41:10;;;;;;;26.85;14.13;;;;;;;;;;10249371;28;20077;-79
2022/10/10 07:46:15;;;;;;;24.58;14.13;;;;;;;;;;10248516;28;20031;-76
2022/10/10 07:51:15;;;;;;;48.75;20.67;;;;;;;;;;10244643;28;20429;-75
2022/10/10 07:56:15;;;;;;;25.73;13.00;;;;;;;;;;10246411;28;20026;-75
2022/10/10 08:01:16;;;;;;;25.48;12.13;;;;;;;;;;10242629;28;20027;-78
2022/10/10 08:06:17;;;;;;;22.90;10.85;;;;;;;;;;10246020;28;20027;-75
2022/10/10 08:11:17;;;;;;;25.42;8.10;;;;;;;;;;10245616;28;20039;-79
2022/10/10 08:16:17;;;;;;;18.05;9.35;;;;;;;;;;10245136;28;20023;-76
2022/10/10 08:21:18;;;;;;;24.80;9.90;;;;;;;;;;10244525;28;20111;-76
2022/10/10 08:26:21;;;;;;;16.63;9.25;;;;;;;;;;10244668;28;20358;-75
2022/10/10 08:31:21;;;;;;;17.80;7.85;;;;;;;;;;10244621;28;20055;-76
2022/10/10 08:36:22;;;;;;;17.17;7.38;;;;;;;;;;10245002;28;20035;-80
2022/10/10 08:41:29;;;;;;;30.90;7.80;;;;;;;;;;10245537;28;20027;-77
2022/10/10 08:46:35;;;;;;;11.88;6.38;;;;;;;;;;10241755;28;20059;-76
2022/10/10 08:51:38;;;;;;;13.70;6.18;;;;;;;;;;10242037;28;20979;-77
2022/10/10 08:56:38;;;;;;;18.63;7.63;;;;;;;;;;10241365;28;20102;-74
2022/10/10 09:01:38;;;;;;;9.68;6.40;;;;;;;;;;10243451;28;20031;-75
2022/10/10 09:06:39;;;;;;;12.50;6.37;;;;;;;;;;10242744;28;20537;-75
2022/10/10 09:11:45;;;;;;;16.83;6.15;;;;;;;;;;10241112;28;20098;-75
2022/10/10 09:16:50;;;;;;;14.25;7.00;;;;;;;;;;10242803;28;20023;-76
2022/10/10 09:21:53;;;;;;;7.70;4.82;;;;;;;;;;10242496;28;20034;-75
2022/10/10 09:26:56;;;;;;;8.38;5.90;;;;;;;;;;10241044;28;20023;-77
2022/10/10 09:31:59;;;;;;;14.60;5.65;;;;;;;;;;10243010;28;20055;-75
2022/10/10 09:37:01;;;;;;;11.27;4.90;;;;;;;;;;10242652;28;20448;-76
2022/10/10 09:42:03;;;;;;;10.00;6.13;;;;;;;;;;10242822;28;20027;-81
2022/10/10 09:47:03;;;;;;;7.07;5.03;;;;;;;;;;10241227;28;20031;-75
2022/10/10 09:52:22;;;;;;;7.88;6.10;;;;;;;;;;10237291;28;20457;-75
2022/10/10 09:57:25;;;;;;;7.68;5.53;;;;;;;;;;10241070;28;20032;-74
2022/10/10 10:02:26;;;;;;;8.90;5.10;;;;;;;;;;10239242;28;20038;-75
2022/10/10 10:07:31;;;;;;;9.23;5.45;;;;;;;;;;10241001;28;20553;-78
2022/10/10 10:12:41;;;;;;;9.75;5.82;;;;;;;;;;10240097;28;20442;-76
2022/10/10 10:17:41;;;;;;;7.05;5.00;;;;;;;;;;10254776;28;20023;-76
2022/10/10 10:22:45;;;;;;;11.48;5.13;;;;;;;;;;10238714;28;20023;-79
2022/10/10 10:27:45;;;;;;;10.05;5.75;;;;;;;;;;10239235;28;20042;-81
2022/10/10 10:32:54;;;;;;;9.27;4.88;;;;;;;;;;10240289;28;20506;-77
2022/10/10 10:38:07;;;;;;;9.90;4.93;;;;;;;;;;10240147;28;20058;-81
2022/10/10 10:43:07;;;;;;;9.95;4.97;;;;;;;;;;10238987;28;20023;-77
2022/10/10 10:48:43;;;;;;;14.30;5.33;;;;;;;;;;10239557;28;20031;-75
2022/10/10 10:53:50;;;;;;;7.38;5.20;;;;;;;;;;10218831;28;20142;-82
2022/10/10 10:58:53;;;;;;;9.30;5.88;;;;;;;;;;10222196;28;20135;-76
2022/10/10 11:04:03;;;;;;;8.85;5.30;;;;;;;;;;10239213;28;20038;-78
2022/10/10 11:09:04;;;;;;;7.38;5.10;;;;;;;;;;10237747;28;20034;-76
2022/10/10 11:14:18;;;;;;;11.85;5.10;;;;;;;;;;10239058;28;20038;-75
2022/10/10 11:19:25;;;;;;;8.93;5.18;;;;;;;;;;10238978;28;20030;-75
2022/10/10 11:24:51;;;;;;;9.85;5.00;;;;;;;;;;10242769;28;20493;-74
2022/10/10 11:30:07;;;;;;;5.72;4.60;;;;;;;;;;10245153;28;20058;-77
2022/10/10 11:35:21;;;;;;;5.30;4.80;;;;;;;;;;10246414;28;20378;-79
2022/10/10 11:40:32;;;;;;;16.23;6.05;;;;;;;;;;10259902;28;20066;-74
2022/10/10 11:45:42;;;;;;;13.75;5.45;;;;;;;;;;10245781;28;20516;-74
2022/10/10 11:50:43;;;;;;;15.35;5.75;;;;;;;;;;10245458;28;20054;-75
2022/10/10 11:55:59;;;;;;;9.13;5.25;;;;;;;;;;10248062;28;20034;-74
2022/10/10 12:01:22;;;;;;;9.00;5.55;;;;;;;;;;10244547;28;20037;-75
2022/10/10 12:06:22;;;;;;;6.78;4.75;;;;;;;;;;10243246;28;20482;-76
2022/10/10 12:11:32;;;;;;;11.00;5.82;;;;;;;;;;10244954;28;20038;-75
2022/10/10 12:16:34;;;;;;;15.75;5.45;;;;;;;;;;10245773;28;20023;-79
2022/10/10 12:21:52;;;;;;;8.23;5.25;;;;;;;;;;10228473;28;20178;-75
2022/10/10 12:26:55;;;;;;;7.13;5.07;;;;;;;;;;10244090;28;20031;-75
2022/10/10 12:32:14;;;;;;;7.97;5.10;;;;;;;;;;10240701;28;20145;-75
2022/10/10 12:37:25;;;;;;;11.38;5.78;;;;;;;;;;10237084;28;20031;-79
2022/10/10 12:42:28;;;;;;;8.65;5.55;;;;;;;;;;10235718;28;20035;-82
2022/10/10 12:47:31;;;;;;;6.97;5.03;;;;;;;;;;10234062;28;20039;-75
2022/10/10 12:52:36;;;;;;;5.35;4.85;;;;;;;;;;10237994;28;20038;-74
2022/10/10 12:57:40;;;;;;;8.65;5.03;;;;;;;;;;10242203;28;20078;-80
2022/10/10 13:02:46;;;;;;;6.35;5.00;;;;;;;;;;10239717;28;20038;-78
2022/10/10 13:07:48;;;;;;;8.40;5.15;;;;;;;;;;10243447;28;20727;-77
2022/10/10 13:13:05;;;;;;;5.70;4.30;;;;;;;;;;10258673;28;20393;-80
2022/10/10 13:18:06;;;;;;;7.33;4.70;;;;;;;;;;10235085;28;20024;-77
2022/10/10 13:23:15;;;;;;;7.78;5.03;;;;;;;;;;10232402;28;20537;-75
2022/10/10 13:28:18;;;;;;;13.57;5.40;;;;;;;;;;10234035;28;20473;-74
2022/10/10 13:33:21;;;;;;;11.02;5.20;;;;;;;;;;10254197;28;20059;-76
2022/10/10 13:38:26;;;;;;;12.55;5.80;;;;;;;;;;10236000;28;20070;-77
2022/10/10 13:43:26;;;;;;;10.60;6.50;;;;;;;;;;10240612;28;20027;-76
2022/10/10 13:48:32;;;;;;;10.73;5.83;;;;;;;;;;10238147;28;20547;-76
2022/10/10 13:53:46;;;;;;;9.15;5.32;;;;;;;;;;10234770;28;20038;-79
2022/10/10 13:58:48;;;;;;;14.00;6.03;;;;;;;;;;10247847;28;20058;-82
2022/10/10 14:03:50;;;;;;;7.18;5.13;;;;;;;;;;10238965;28;20657;-75
2022/10/10 14:08:52;;;;;;;7.93;4.82;;;;;;;;;;10234611;28;20050;-78
2022/10/10 14:13:54;;;;;;;9.13;5.82;;;;;;;;;;10236347;28;20066;-79
2022/10/10 14:18:54;;;;;;;14.90;5.63;;;;;;;;;;10236970;28;20070;-78
2022/10/10 14:23:54;;;;;;;7.85;5.43;;;;;;;;;;10234859;28;20019;-80
2022/10/10 14:28:55;;;;;;;10.13;5.97;;;;;;;;;;10238541;28;20043;-83
2022/10/10 14:33:55;;;;;;;13.97;5.97;;;;;;;;;;10271870;23;20883;-79
2022/10/10 14:38:55;;;;;;;11.97;5.20;;;;;;;;;;10238499;28;20058;-82
2022/10/10 14:43:56;;;;;;;10.13;5.72;;;;;;;;;;10240214;28;20423;-81
2022/10/10 14:48:56;;;;;;;8.77;5.35;;;;;;;;;;10237095;28;20621;-81
2022/10/10 14:53:56;;;;;;;13.30;6.57;;;;;;;;;;10253158;28;20031;-78
2022/10/10 14:58:57;;;;;;;12.38;6.25;;;;;;;;;;10243521;28;20445;-77
2022/10/10 15:03:57;;;;;;;13.00;6.10;;;;;;;;;;10245183;28;20042;-79
2022/10/10 15:08:57;;;;;;;13.45;6.40;;;;;;;;;;10244120;28;20087;-78
2022/10/10 15:13:58;;;;;;;13.13;6.22;;;;;;;;;;10242814;29;20022;-80
2022/10/10 15:18:58;;;;;;;15.88;6.82;;;;;;;;;;10243831;28;20114;-80
2022/10/10 15:23:59;;;;;;;17.50;6.60;;;;;;;;;;10245417;28;20030;-83
2022/10/10 15:29:00;;;;;;;11.95;5.90;;;;;;;;;;10243318;28;20031;-81
2022/10/10 15:34:00;;;;;;;17.90;6.43;;;;;;;;;;10316211;23;20051;-79
2022/10/10 15:39:00;;;;;;;14.57;6.18;;;;;;;;;;10302360;28;20105;-83
2022/10/10 15:44:00;;;;;;;12.50;6.57;;;;;;;;;;10302022;28;20544;-79
2022/10/10 15:49:01;;;;;;;15.07;6.67;;;;;;;;;;10300865;28;20054;-77
2022/10/10 15:54:01;;;;;;;11.68;7.20;;;;;;;;;;10297737;28;20027;-80
2022/10/10 15:59:03;;;;;;;20.40;6.20;;;;;;;;;;10300435;28;20124;-79
2022/10/10 16:04:04;;;;;;;10.38;6.20;;;;;;;;;;10301820;28;20106;-78
2022/10/10 16:09:05;;;;;;;12.95;7.05;;;;;;;;;;10302218;28;20033;-81
2022/10/10 16:14:05;;;;;;;21.50;8.15;;;;;;;;;;10301392;28;20060;-80
2022/10/10 16:19:06;;;;;;;13.37;8.43;;;;;;;;;;10312213;28;20509;-80
2022/10/10 16:24:07;;;;;;;18.65;8.77;;;;;;;;;;10303983;28;20281;-80
2022/10/10 16:29:08;;;;;;;16.95;8.45;;;;;;;;;;10300131;28;20019;-75
2022/10/10 16:34:09;;;;;;;14.23;8.20;;;;;;;;;;10300171;28;20101;-80
2022/10/10 16:39:09;;;;;;;17.20;8.32;;;;;;;;;;10296552;28;20485;-76
2022/10/10 16:44:09;;;;;;;15.10;8.07;;;;;;;;;;10306690;28;20449;-76
2022/10/10 16:49:10;;;;;;;18.38;8.63;;;;;;;;;;10297061;28;20035;-82
2022/10/10 16:54:11;;;;;;;14.77;8.02;;;;;;;;;;10291379;28;20114;-80
2022/10/10 16:59:11;;;;;;;16.87;8.10;;;;;;;;;;10293632;28;20401;-78
2022/10/10 17:04:11;;;;;;;12.82;7.80;;;;;;;;;;10295479;28;20289;-76
2022/10/10 17:09:12;;;;;;;19.75;8.00;;;;;;;;;;10295656;28;20035;-76
2022/10/10 17:14:12;;;;;;;15.13;7.70;;;;;;;;;;10291834;28;20034;-75
2022/10/10 17:19:12;;;;;;;13.77;7.78;;;;;;;;;;10286309;28;20034;-75
2022/10/10 17:24:12;;;;;;;12.20;8.00;;;;;;;;;;10289548;28;20527;-79
2022/10/10 17:29:13;;;;;;;19.40;8.65;;;;;;;;;;10286190;28;20117;-77
2022/10/10 17:34:14;;;;;;;11.93;7.75;;;;;;;;;;10279774;28;20039;-75
2022/10/10 17:39:14;;;;;;;17.85;8.85;;;;;;;;;;10282916;28;20023;-78
2022/10/10 17:44:14;;;;;;;20.27;8.50;;;;;;;;;;10286289;28;20019;-74
2022/10/10 17:49:15;;;;;;;15.02;9.10;;;;;;;;;;10315122;28;20866;-74
2022/10/10 17:54:17;;;;;;;15.07;9.32;;;;;;;;;;10287205;28;20464;-75
2022/10/10 17:59:17;;;;;;;23.92;9.68;;;;;;;;;;10291627;28;20019;-74
2022/10/10 18:04:17;;;;;;;18.17;9.73;;;;;;;;;;10293591;28;20052;-75
2022/10/10 18:09:18;;;;;;;16.02;9.18;;;;;;;;;;10295366;28;20018;-74
2022/10/10 18:14:19;;;;;;;17.55;8.93;;;;;;;;;;10295129;28;20082;-74
2022/10/10 18:19:19;;;;;;;15.52;10.27;;;;;;;;;;10292051;28;20360;-75
2022/10/10 18:24:20;;;;;;;20.57;8.30;;;;;;;;;;10287790;28;20035;-76
2022/10/10 18:29:20;;;;;;;21.65;8.98;;;;;;;;;;10297234;28;20039;-74
2022/10/10 18:34:20;;;;;;;16.77;8.05;;;;;;;;;;10289717;28;20050;-74
2022/10/10 18:39:21;;;;;;;20.92;9.93;;;;;;;;;;10293595;28;20041;-74
2022/10/10 18:44:21;;;;;;;14.00;9.02;;;;;;;;;;10311053;23;20081;-74
2022/10/10 18:49:22;;;;;;;12.85;8.30;;;;;;;;;;10290633;28;20572;-74
2022/10/10 18:54:22;;;;;;;14.65;9.82;;;;;;;;;;10336298;23;20066;-73
2022/10/10 18:59:22;;;;;;;21.40;9.87;;;;;;;;;;10310311;28;20030;-77
2022/10/10 19:04:23;;;;;;;13.85;8.35;;;;;;;;;;10312823;28;20030;-76
2022/10/10 19:09:24;;;;;;;16.38;9.32;;;;;;;;;;10312897;28;20035;-74
2022/10/10 19:14:24;;;;;;;14.15;9.60;;;;;;;;;;10309955;28;20072;-75
2022/10/10 19:19:24;;;;;;;13.63;9.20;;;;;;;;;;10312171;28;20122;-74
2022/10/10 19:24:25;;;;;;;15.80;9.95;;;;;;;;;;10311287;28;20038;-73
2022/10/10 19:29:25;;;;;;;22.15;9.65;;;;;;;;;;10308941;28;20034;-74
2022/10/10 19:34:25;;;;;;;22.38;10.48;;;;;;;;;;10312909;28;20034;-75
2022/10/10 19:39:26;;;;;;;16.45;9.68;;;;;;;;;;10309959;28;20015;-74
2022/10/10 19:44:26;;;;;;;15.35;9.75;;;;;;;;;;10278510;28;20486;-75
2022/10/10 19:49:26;;;;;;;16.63;9.70;;;;;;;;;;10275618;28;20027;-74
2022/10/10 19:54:26;;;;;;;19.88;10.82;;;;;;;;;;10280318;28;20050;-76
2022/10/10 19:59:27;;;;;;;16.02;10.35;;;;;;;;;;10281963;28;20551;-77
2022/10/10 20:04:27;;;;;;;19.70;10.52;;;;;;;;;;10264953;28;20117;-76
2022/10/10 20:09:28;;;;;;;18.33;10.88;;;;;;;;;;10276226;28;20043;-73
2022/10/10 20:14:28;;;;;;;25.77;12.10;;;;;;;;;;10278369;28;20829;-72
2022/10/10 20:19:29;;;;;;;24.40;11.23;;;;;;;;;;10280278;28;20105;-74
2022/10/10 20:24:29;;;;;;;19.73;10.13;;;;;;;;;;10280242;28;20105;-74
2022/10/10 20:29:29;;;;;;;20.60;10.02;;;;;;;;;;10281320;28;20030;-74
2022/10/10 20:34:29;;;;;;;18.27;9.55;;;;;;;;;;10278859;28;20072;-74
2022/10/10 20:39:30;;;;;;;20.02;10.13;;;;;;;;;;10278483;28;20038;-76
2022/10/10 20:44:30;;;;;;;15.73;10.48;;;;;;;;;;10292862;28;21248;-73
2022/10/10 20:49:30;;;;;;;19.35;10.43;;;;;;;;;;10277751;28;20031;-74
2022/10/10 20:54:30;;;;;;;15.90;10.27;;;;;;;;;;10280994;28;20062;-73
2022/10/10 20:59:30;;;;;;;19.35;10.75;;;;;;;;;;10276874;28;20073;-75
2022/10/10 21:04:31;;;;;;;16.42;9.43;;;;;;;;;;10280680;28;20030;-74
2022/10/10 21:09:31;;;;;;;17.55;9.73;;;;;;;;;;10278402;28;20027;-74
2022/10/10 21:14:31;;;;;;;19.27;9.70;;;;;;;;;;10274391;28;20067;-76
2022/10/10 21:19:33;;;;;;;18.90;10.68;;;;;;;;;;10279076;28;20082;-73
2022/10/10 21:24:33;;;;;;;21.60;11.25;;;;;;;;;;10277676;28;20865;-74
2022/10/10 21:29:33;;;;;;;25.55;10.93;;;;;;;;;;10275223;28;20031;-73
2022/10/10 21:34:34;;;;;;;20.20;9.88;;;;;;;;;;10277961;28;20022;-74
2022/10/10 21:39:34;;;;;;;15.60;9.37;;;;;;;;;;10278241;28;20109;-73
2022/10/10 21:44:34;;;;;;;17.40;9.03;;;;;;;;;;10275596;28;20206;-74
2022/10/10 21:49:35;;;;;;;19.17;10.13;;;;;;;;;;10276089;28;20031;-72
2022/10/10 21:54:35;;;;;;;17.02;10.63;;;;;;;;;;10273204;28;20050;-77
2022/10/10 21:59:35;;;;;;;19.23;10.10;;;;;;;;;;10277996;28;20031;-74
2022/10/10 22:04:35;;;;;;;16.95;10.90;;;;;;;;;;10278867;28;20019;-74
2022/10/10 22:09:36;;;;;;;20.77;10.43;;;;;;;;;;10278993;28;20030;-77
2022/10/10 22:14:36;;;;;;;18.00;10.43;;;;;;;;;;10263376;28;20088;-74
2022/10/10 22:19:36;;;;;;;17.95;10.10;;;;;;;;;;10280716;28;20446;-79
2022/10/10 22:24:36;;;;;;;17.67;10.63;;;;;;;;;;10281779;28;20065;-79
2022/10/10 22:29:37;;;;;;;21.33;11.20;;;;;;;;;;10263529;28;20142;-74
2022/10/10 22:34:37;;;;;;;20.27;10.07;;;;;;;;;;10279553;28;20031;-77
2022/10/10 22:39:38;;;;;;;20.93;10.30;;;;;;;;;;10282325;28;20031;-74
2022/10/10 22:44:38;;;;;;;17.45;10.65;;;;;;;;;;10280368;28;20031;-75
2022/10/10 22:49:38;;;;;;;16.58;10.63;;;;;;;;;;10280730;28;20481;-78
2022/10/10 22:54:38;;;;;;;23.60;10.60;;;;;;;;;;10279813;28;20477;-82
2022/10/10 22:59:39;;;;;;;17.67;10.27;;;;;;;;;;10279058;28;20375;-73
2022/10/10 23:04:39;;;;;;;20.10;10.60;;;;;;;;;;10277704;28;20022;-74
2022/10/10 23:09:39;;;;;;;17.92;10.93;;;;;;;;;;10278490;28;20089;-76
2022/10/10 23:14:39;;;;;;;17.77;10.32;;;;;;;;;;10279996;28;20092;-75
2022/10/10 23:19:40;;;;;;;22.23;11.40;;;;;;;;;;10285200;28;20019;-73
2022/10/10 23:24:40;;;;;;;17.02;9.68;;;;;;;;;;10289274;28;20050;-74
2022/10/10 23:29:40;;;;;;;87.55;78.13;;;;;;;;;;10287392;28;20026;-74
2022/10/10 23:34:40;;;;;;;22.90;10.93;;;;;;;;;;10287034;28;20184;-75
2022/10/10 23:39:41;;;;;;;20.50;11.02;;;;;;;;;;10288158;28;20076;-75
2022/10/10 23:44:41;;;;;;;26.23;11.50;;;;;;;;;;10286838;28;20544;-74
2022/10/10 23:49:42;;;;;;;20.55;11.60;;;;;;;;;;10286683;28;20054;-77
2022/10/10 23:54:42;;;;;;;23.95;11.07;;;;;;;;;;10286334;28;20051;-77
2022/10/10 23:59:42;;;;;;;18.70;11.77;;;;;;;;;;10286158;28;20085;-76
